createdAt,value
2019-03-22T00:02:10.520Z,28.20
2019-03-22T00:05:03.479Z,28.20
2019-03-22T00:07:55.923Z,28.30
2019-03-22T00:10:48.823Z,28.20
2019-03-22T00:13:41.364Z,28.20
2019-03-22T00:16:34.111Z,28.20
2019-03-22T00:19:27.127Z,28.20
2019-03-22T00:22:19.636Z,28.20
2019-03-22T00:25:13.018Z,28.20
2019-03-22T00:28:05.541Z,28.20
2019-03-22T00:30:58.307Z,28.20
2019-03-22T00:33:51.156Z,28.20
2019-03-22T00:36:43.704Z,28.20
2019-03-22T00:39:36.531Z,28.20
2019-03-22T00:42:28.993Z,28.20
2019-03-22T00:45:22.058Z,28.20
2019-03-22T00:48:14.897Z,28.20
2019-03-22T00:51:07.943Z,28.20
2019-03-22T00:54:00.401Z,28.20
2019-03-22T00:56:52.689Z,28.20
2019-03-22T00:59:45.620Z,28.20
2019-03-22T01:02:38.355Z,28.20
2019-03-22T01:05:31.490Z,28.20
2019-03-22T01:08:23.838Z,28.20
2019-03-22T01:11:16.067Z,28.20
2019-03-22T01:14:08.470Z,28.20
2019-03-22T01:17:01.237Z,28.20
2019-03-22T01:19:54.234Z,28.20
2019-03-22T01:22:47.061Z,28.20
2019-03-22T01:25:39.423Z,28.20
2019-03-22T01:28:31.643Z,28.20
2019-03-22T01:31:24.310Z,28.20
2019-03-22T01:34:17.165Z,28.20
2019-03-22T01:37:09.818Z,28.20
2019-03-22T01:40:02.546Z,28.20
2019-03-22T01:42:55.412Z,28.20
2019-03-22T01:45:48.577Z,28.20
2019-03-22T01:48:42.414Z,28.20
2019-03-22T01:51:34.994Z,28.20
2019-03-22T01:54:27.293Z,28.20
2019-03-22T01:57:19.774Z,28.20
2019-03-22T02:00:12.562Z,28.20
2019-03-22T02:03:04.962Z,28.20
2019-03-22T02:05:58.037Z,28.20
2019-03-22T02:08:52.802Z,28.20
2019-03-22T02:11:45.534Z,28.20
2019-03-22T02:14:38.550Z,28.20
2019-03-22T02:17:31.738Z,28.20
2019-03-22T02:20:24.630Z,28.20
2019-03-22T02:23:17.599Z,28.20
2019-03-22T02:26:10.623Z,28.10
2019-03-22T02:29:03.478Z,28.20
2019-03-22T02:31:56.501Z,28.20
2019-03-22T02:34:50.717Z,28.20
2019-03-22T02:37:44.396Z,28.20
2019-03-22T02:40:37.049Z,28.10
2019-03-22T02:43:32.341Z,28.20
2019-03-22T02:46:25.515Z,28.10
2019-03-22T02:49:20.057Z,28.10
2019-03-22T02:52:14.075Z,28.10
2019-03-22T02:55:06.840Z,28.10
2019-03-22T02:57:59.790Z,28.20
2019-03-22T03:00:53.447Z,28.20
2019-03-22T03:03:45.975Z,28.10
2019-03-22T03:06:38.925Z,28.10
2019-03-22T03:09:31.527Z,28.10
2019-03-22T03:12:24.468Z,28.10
2019-03-22T03:15:17.364Z,28.10
2019-03-22T03:18:10.165Z,28.10
2019-03-22T03:21:02.809Z,28.10
2019-03-22T03:23:55.128Z,28.10
2019-03-22T03:26:48.398Z,28.10
2019-03-22T03:31:02.450Z,28.10
2019-03-22T03:33:56.832Z,28.10
2019-03-22T03:36:49.860Z,28.10
2019-03-22T03:39:43.268Z,28.10
2019-03-22T03:42:37.277Z,28.10
2019-03-22T03:45:36.729Z,28.10
2019-03-22T03:48:29.431Z,28.10
2019-03-22T03:51:22.146Z,28.10
2019-03-22T03:54:14.238Z,28.10
2019-03-22T03:57:06.968Z,28.10
2019-03-22T03:59:59.843Z,28.10
2019-03-22T04:02:52.786Z,28.10
2019-03-22T04:05:45.398Z,28.10
2019-03-22T04:08:37.960Z,28.10
2019-03-22T04:11:33.226Z,28.10
2019-03-22T04:14:26.447Z,28.10
2019-03-22T04:17:18.924Z,28.10
2019-03-22T04:20:11.435Z,28.10
2019-03-22T04:23:04.320Z,28.10
2019-03-22T04:25:58.440Z,28.10
2019-03-22T04:29:06.109Z,28.10
2019-03-22T04:31:45.401Z,28.10
2019-03-22T04:34:38.348Z,28.10
2019-03-22T04:37:38.072Z,28.10
2019-03-22T04:40:30.996Z,28.10
2019-03-22T04:43:23.675Z,28.10
2019-03-22T04:46:16.479Z,28.10
2019-03-22T04:49:11.930Z,28.10
2019-03-22T04:52:05.286Z,28.10
2019-03-22T04:54:59.590Z,28.10
2019-03-22T04:57:53.055Z,28.10
2019-03-22T05:00:46.003Z,28.20
2019-03-22T05:03:39.000Z,28.20
2019-03-22T05:06:32.270Z,28.20
2019-03-22T05:09:27.380Z,28.20
2019-03-22T05:12:22.744Z,28.10
2019-03-22T05:15:26.103Z,28.10
2019-03-22T05:18:20.031Z,28.00
2019-03-22T05:21:16.266Z,28.00
2019-03-22T05:24:18.818Z,28.00
2019-03-22T05:27:16.019Z,27.90
2019-03-22T05:30:10.775Z,27.90
2019-03-22T05:33:04.241Z,27.90
2019-03-22T05:36:06.827Z,27.80
2019-03-22T05:38:59.606Z,27.80
2019-03-22T05:41:54.367Z,27.80
2019-03-22T05:44:48.023Z,27.80
2019-03-22T05:47:40.575Z,27.70
2019-03-22T05:50:34.048Z,27.50
2019-03-22T05:53:26.641Z,27.50
2019-03-22T05:56:20.827Z,27.50
2019-03-22T05:59:14.148Z,27.40
2019-03-22T06:02:07.371Z,27.50
2019-03-22T06:05:00.361Z,27.50
2019-03-22T06:07:52.652Z,27.40
2019-03-22T06:10:46.021Z,27.30
2019-03-22T06:13:44.308Z,27.40
2019-03-22T06:16:38.703Z,27.30
2019-03-22T06:19:32.772Z,27.30
2019-03-22T06:22:28.714Z,27.30
2019-03-22T06:25:22.161Z,27.20
2019-03-22T06:28:16.183Z,27.20
2019-03-22T06:31:10.903Z,27.20
2019-03-22T06:34:03.767Z,27.10
2019-03-22T06:36:56.642Z,27.10
2019-03-22T06:39:52.115Z,27.20
2019-03-22T06:42:46.473Z,27.10
2019-03-22T06:45:39.759Z,27.20
2019-03-22T06:48:33.821Z,27.20
2019-03-22T06:51:26.920Z,27.20
2019-03-22T06:54:31.029Z,27.20
2019-03-22T06:57:28.140Z,27.30
2019-03-22T07:00:22.236Z,27.30
2019-03-22T07:03:14.498Z,27.20
2019-03-22T07:06:10.026Z,27.30
2019-03-22T07:09:13.954Z,27.30
2019-03-22T07:12:06.225Z,27.30
2019-03-22T07:15:03.573Z,27.30
2019-03-22T07:17:56.487Z,27.30
2019-03-22T07:20:48.885Z,27.20
2019-03-22T07:23:41.918Z,27.30
2019-03-22T07:26:40.951Z,27.30
2019-03-22T07:29:33.799Z,27.30
2019-03-22T07:32:26.968Z,27.30
2019-03-22T07:35:19.987Z,27.40
2019-03-22T07:38:12.648Z,27.30
2019-03-22T07:41:05.376Z,27.40
2019-03-22T07:43:57.669Z,27.30
2019-03-22T07:46:50.218Z,27.30
2019-03-22T07:49:44.831Z,27.30
2019-03-22T07:52:39.082Z,27.40
2019-03-22T07:55:33.915Z,27.40
2019-03-22T07:58:28.775Z,27.40
2019-03-22T08:01:21.859Z,27.40
2019-03-22T08:04:15.585Z,27.30
2019-03-22T08:07:09.741Z,27.40
2019-03-22T08:10:05.713Z,27.40
2019-03-22T08:13:00.087Z,27.40
2019-03-22T08:15:57.468Z,27.50
2019-03-22T08:18:54.680Z,27.60
2019-03-22T08:21:49.173Z,27.80
2019-03-22T08:24:42.106Z,27.80
2019-03-22T08:27:35.552Z,27.90
2019-03-22T08:30:28.566Z,27.90
2019-03-22T08:33:22.175Z,27.80
2019-03-22T08:36:16.061Z,27.60
2019-03-22T08:39:12.533Z,27.50
2019-03-22T08:42:06.513Z,27.30
2019-03-22T08:44:59.869Z,27.40
2019-03-22T08:47:53.884Z,27.40
2019-03-22T08:50:48.836Z,27.30
2019-03-22T08:53:54.590Z,27.30
2019-03-22T08:56:39.526Z,27.30
2019-03-22T08:59:32.585Z,27.20
2019-03-22T09:02:25.099Z,27.30
2019-03-22T09:05:17.492Z,27.30
2019-03-22T09:08:09.887Z,27.20
2019-03-22T09:11:02.993Z,27.20
2019-03-22T09:13:55.630Z,27.30
2019-03-22T09:16:48.152Z,27.30
2019-03-22T09:19:41.993Z,27.30
2019-03-22T09:22:35.160Z,27.30
2019-03-22T09:25:31.728Z,27.20
2019-03-22T09:28:26.146Z,27.20
2019-03-22T09:31:19.385Z,27.30
2019-03-22T09:34:12.236Z,27.20
2019-03-22T09:37:09.734Z,27.20
2019-03-22T09:40:08.618Z,27.30
2019-03-22T09:43:02.471Z,27.20
2019-03-22T09:45:54.846Z,27.10
2019-03-22T09:48:48.061Z,27.20
2019-03-22T09:51:41.224Z,27.10
2019-03-22T09:54:33.909Z,27.10
2019-03-22T09:57:29.528Z,27.20
2019-03-22T10:00:34.946Z,27.20
2019-03-22T10:03:30.572Z,27.20
2019-03-22T10:06:25.507Z,27.20
2019-03-22T10:09:18.517Z,27.20
2019-03-22T10:12:11.069Z,27.00
2019-03-22T10:15:03.384Z,27.00
2019-03-22T10:17:56.113Z,27.00
2019-03-22T10:20:48.666Z,26.90
2019-03-22T10:23:41.100Z,27.00
2019-03-22T10:26:35.060Z,26.90
2019-03-22T10:29:30.141Z,26.70
2019-03-22T10:32:24.633Z,26.80
2019-03-22T10:35:25.883Z,26.80
2019-03-22T10:38:16.249Z,26.80
2019-03-22T10:41:06.467Z,26.70
2019-03-22T10:43:59.635Z,26.90
2019-03-22T10:46:52.149Z,26.90
2019-03-22T10:49:45.978Z,26.80
2019-03-22T10:52:39.576Z,26.70
2019-03-22T10:55:35.261Z,26.80
2019-03-22T10:58:26.432Z,26.80
2019-03-22T11:01:21.714Z,26.90
2019-03-22T11:04:20.139Z,26.80
2019-03-22T11:07:12.526Z,26.90
2019-03-22T11:10:05.705Z,27.00
2019-03-22T11:12:58.421Z,27.00
2019-03-22T11:15:51.413Z,27.10
2019-03-22T11:18:45.086Z,27.20
2019-03-22T11:21:39.274Z,27.00
2019-03-22T11:24:34.212Z,26.80
2019-03-22T11:27:33.925Z,26.90
2019-03-22T11:30:31.278Z,26.90
2019-03-22T11:33:24.234Z,26.80
2019-03-22T11:36:22.243Z,26.70
2019-03-22T11:39:16.193Z,26.80
2019-03-22T11:42:08.904Z,26.90
2019-03-22T11:45:02.887Z,26.80
2019-03-22T11:47:55.190Z,26.70
2019-03-22T11:50:47.883Z,26.90
2019-03-22T11:53:41.327Z,26.80
2019-03-22T11:56:35.990Z,26.80
2019-03-22T11:59:28.695Z,26.80
2019-03-22T12:02:22.741Z,26.80
2019-03-22T12:05:16.077Z,26.80
2019-03-22T12:08:09.402Z,26.80
2019-03-22T12:11:01.813Z,26.70
2019-03-22T12:13:55.843Z,26.80
2019-03-22T12:16:48.416Z,26.80
2019-03-22T12:19:41.465Z,26.70
2019-03-22T12:22:34.485Z,26.70
2019-03-22T12:25:29.113Z,26.80
2019-03-22T12:28:22.107Z,26.70
2019-03-22T12:31:15.927Z,26.70
2019-03-22T12:34:10.243Z,26.60
2019-03-22T12:37:02.817Z,26.70
2019-03-22T12:39:55.506Z,26.80
2019-03-22T12:42:48.239Z,26.70
2019-03-22T12:45:42.131Z,26.60
2019-03-22T12:48:35.331Z,26.70
2019-03-22T12:51:29.017Z,26.80
2019-03-22T12:54:22.269Z,26.80
2019-03-22T12:57:15.390Z,26.70
2019-03-22T13:00:09.193Z,26.60
2019-03-22T13:03:01.841Z,26.70
2019-03-22T13:05:55.110Z,26.80
2019-03-22T13:08:48.084Z,26.70
2019-03-22T13:11:42.287Z,26.60
2019-03-22T13:14:34.680Z,26.70
2019-03-22T13:17:28.215Z,26.70
2019-03-22T13:20:22.454Z,26.80
2019-03-22T13:23:17.407Z,26.80
2019-03-22T13:26:10.181Z,26.80
2019-03-22T13:29:04.731Z,26.90
2019-03-22T13:32:00.336Z,26.90
2019-03-22T13:34:52.899Z,26.90
2019-03-22T13:37:45.557Z,27.00
2019-03-22T13:40:38.860Z,27.00
2019-03-22T13:43:31.975Z,26.90
2019-03-22T13:46:27.447Z,27.00
2019-03-22T13:49:19.840Z,26.90
2019-03-22T13:52:14.287Z,26.90
2019-03-22T13:55:07.072Z,27.00
2019-03-22T13:57:59.781Z,26.90
2019-03-22T14:00:55.693Z,26.90
2019-03-22T14:03:47.999Z,27.00
2019-03-22T14:06:41.410Z,26.90
2019-03-22T14:09:34.403Z,26.90
2019-03-22T14:12:36.609Z,27.00
2019-03-22T14:15:22.114Z,26.90
2019-03-22T14:18:15.187Z,27.00
2019-03-22T14:21:07.793Z,27.00
2019-03-22T14:24:25.704Z,26.90
2019-03-22T14:27:18.610Z,27.10
2019-03-22T14:30:11.275Z,27.20
2019-03-22T14:33:13.299Z,27.30
2019-03-22T14:36:09.052Z,27.30
2019-03-22T14:39:02.114Z,27.40
2019-03-22T14:41:57.501Z,27.40
2019-03-22T14:44:51.528Z,27.40
2019-03-22T14:47:47.659Z,27.50
2019-03-22T14:50:41.052Z,27.50
2019-03-22T14:53:35.474Z,27.50
2019-03-22T14:56:28.043Z,27.50
2019-03-22T14:59:20.493Z,27.60
2019-03-22T15:02:13.767Z,27.50
2019-03-22T15:05:07.672Z,27.60
2019-03-22T15:08:00.743Z,27.60
2019-03-22T15:10:53.851Z,27.60
2019-03-22T15:13:52.604Z,27.60
2019-03-22T15:17:07.272Z,27.60
2019-03-22T15:20:33.365Z,27.60
2019-03-22T15:23:50.947Z,27.60
2019-03-22T15:27:07.545Z,27.60
2019-03-22T15:30:36.111Z,27.60
2019-03-22T15:33:46.596Z,27.70
2019-03-22T15:37:09.879Z,27.70
2019-03-22T15:40:05.257Z,27.70
2019-03-22T15:42:59.844Z,27.70
2019-03-22T15:45:53.367Z,27.70
2019-03-22T15:48:46.537Z,27.70
2019-03-22T15:51:39.497Z,27.70
2019-03-22T15:54:33.624Z,27.70
2019-03-22T15:57:27.549Z,27.70
2019-03-22T16:00:21.028Z,27.70
2019-03-22T16:03:15.280Z,27.80
2019-03-22T16:06:13.299Z,27.70
2019-03-22T16:13:11.878Z,27.80
2019-03-22T16:16:09.015Z,27.80
2019-03-22T16:19:03.311Z,27.80
2019-03-22T16:21:56.984Z,27.80
2019-03-22T16:24:49.877Z,27.80
2019-03-22T16:27:43.036Z,27.80
2019-03-22T16:30:36.237Z,27.80
2019-03-22T16:33:29.048Z,27.80
2019-03-22T16:36:21.872Z,27.80
2019-03-22T16:39:15.037Z,27.90
2019-03-22T16:42:12.284Z,27.90
2019-03-22T16:45:06.886Z,27.80
2019-03-22T16:47:59.399Z,27.80
2019-03-22T16:50:52.246Z,27.80
2019-03-22T16:53:45.996Z,27.90
2019-03-22T16:56:39.159Z,27.90
2019-03-22T16:59:31.846Z,27.90
2019-03-22T17:02:25.025Z,27.90
2019-03-22T17:05:19.113Z,27.90
2019-03-22T17:08:11.928Z,27.90
2019-03-22T17:11:04.898Z,27.90
2019-03-22T17:13:57.587Z,27.90
2019-03-22T17:16:51.897Z,27.90
2019-03-22T17:19:45.019Z,27.90
2019-03-22T17:22:39.678Z,27.90
2019-03-22T17:25:33.641Z,27.90
2019-03-22T17:28:27.011Z,27.90
2019-03-22T17:31:20.453Z,27.90
2019-03-22T17:34:14.685Z,27.90
2019-03-22T17:37:07.300Z,27.90
2019-03-22T17:40:00.427Z,27.90
2019-03-22T17:42:55.294Z,27.90
2019-03-22T17:45:48.499Z,27.90
2019-03-22T17:48:41.163Z,27.90
2019-03-22T17:51:33.846Z,28.00
2019-03-22T17:54:26.684Z,28.00
2019-03-22T17:57:19.516Z,28.00
2019-03-22T18:00:12.723Z,28.00
2019-03-22T18:03:06.564Z,28.00
2019-03-22T18:05:59.793Z,28.00
2019-03-22T18:08:52.547Z,28.00
2019-03-22T18:11:45.200Z,28.00
2019-03-22T18:14:38.140Z,28.00
2019-03-22T18:17:31.895Z,28.00
2019-03-22T18:20:24.825Z,28.00
2019-03-22T18:23:17.432Z,28.00
2019-03-22T18:26:10.482Z,28.00
2019-03-22T18:29:03.191Z,28.00
2019-03-22T18:31:56.318Z,28.00
2019-03-22T18:34:48.985Z,28.00
2019-03-22T18:37:42.787Z,28.00
2019-03-22T18:40:36.153Z,28.00
2019-03-22T18:43:29.055Z,28.00
2019-03-22T18:46:22.206Z,28.00
2019-03-22T18:49:15.337Z,28.10
2019-03-22T18:52:08.405Z,28.00
2019-03-22T18:55:01.151Z,28.00
2019-03-22T18:57:54.247Z,28.00
2019-03-22T19:00:49.531Z,28.00
2019-03-22T19:03:41.450Z,28.00
2019-03-22T19:06:33.976Z,28.00
2019-03-22T19:09:26.486Z,28.10
2019-03-22T19:12:19.252Z,28.10
2019-03-22T19:15:12.419Z,28.10
2019-03-22T19:18:04.830Z,28.10
2019-03-22T19:20:57.395Z,28.10
2019-03-22T19:23:51.179Z,28.10
2019-03-22T19:26:44.166Z,28.10
2019-03-22T19:29:37.377Z,28.10
2019-03-22T19:32:30.873Z,28.10
2019-03-22T19:35:24.865Z,28.10
2019-03-22T19:38:17.284Z,28.10
2019-03-22T19:41:10.299Z,28.10
2019-03-22T19:44:03.137Z,28.10
2019-03-22T19:46:55.513Z,28.10
2019-03-22T19:49:48.497Z,28.10
2019-03-22T19:52:42.820Z,28.10
2019-03-22T19:55:36.333Z,28.10
2019-03-22T19:58:29.392Z,28.10
2019-03-22T20:01:22.537Z,28.10
2019-03-22T20:04:15.701Z,28.10
2019-03-22T20:07:08.278Z,28.10
2019-03-22T20:10:00.983Z,28.10
2019-03-22T20:12:54.966Z,28.10
2019-03-22T20:15:47.754Z,28.10
2019-03-22T20:18:40.876Z,28.10
2019-03-22T20:21:33.403Z,28.10
2019-03-22T20:24:26.816Z,28.10
2019-03-22T20:27:19.313Z,28.10
2019-03-22T20:30:12.368Z,28.10
2019-03-22T20:33:05.673Z,28.10
2019-03-22T20:35:57.933Z,28.10
2019-03-22T20:38:51.025Z,28.10
2019-03-22T20:41:44.673Z,28.10
2019-03-22T20:44:37.447Z,28.10
2019-03-22T20:47:30.791Z,28.10
2019-03-22T20:50:23.870Z,28.10
2019-03-22T20:53:16.805Z,28.10
2019-03-22T20:56:09.572Z,28.10
2019-03-22T20:59:02.451Z,28.10
2019-03-22T21:01:55.173Z,28.10
2019-03-22T21:04:47.838Z,28.10
2019-03-22T21:07:41.221Z,28.10
2019-03-22T21:10:34.010Z,28.10
2019-03-22T21:13:26.635Z,28.10
2019-03-22T21:16:20.286Z,28.10
2019-03-22T21:19:13.252Z,28.10
2019-03-22T21:22:05.975Z,28.10
2019-03-22T21:24:58.885Z,28.10
2019-03-22T21:27:51.752Z,28.10
2019-03-22T21:30:44.407Z,28.10
2019-03-22T21:33:37.285Z,28.10
2019-03-22T21:36:29.897Z,28.10
2019-03-22T21:39:22.745Z,28.10
2019-03-22T21:42:15.700Z,28.10
2019-03-22T21:45:08.463Z,28.10
2019-03-22T21:48:01.162Z,28.10
2019-03-22T21:50:53.418Z,28.10
2019-03-22T21:53:46.619Z,28.10
2019-03-22T21:56:39.770Z,28.10
2019-03-22T21:59:33.188Z,28.10
2019-03-22T22:02:25.643Z,28.10
2019-03-22T22:05:18.777Z,28.10
2019-03-22T22:08:11.566Z,28.10
2019-03-22T22:11:05.259Z,28.10
2019-03-22T22:13:59.111Z,28.10
2019-03-22T22:16:51.763Z,28.10
2019-03-22T22:19:44.482Z,28.10
2019-03-22T22:22:36.905Z,28.10
2019-03-22T22:25:30.877Z,28.10
2019-03-22T22:28:23.840Z,28.10
2019-03-22T22:31:17.564Z,28.10
2019-03-22T22:34:10.376Z,28.10
2019-03-22T22:37:03.314Z,28.10
2019-03-22T22:39:56.060Z,28.10
2019-03-22T22:42:48.839Z,28.10
2019-03-22T22:45:42.507Z,28.10
2019-03-22T22:48:34.996Z,28.10
2019-03-22T22:51:28.101Z,28.10
2019-03-22T22:54:21.025Z,28.10
2019-03-22T22:57:13.723Z,28.10
2019-03-22T23:00:06.817Z,28.10
2019-03-22T23:03:00.456Z,28.10
2019-03-22T23:05:53.119Z,28.10
2019-03-22T23:08:46.096Z,28.10
2019-03-22T23:11:39.050Z,28.10
2019-03-22T23:14:31.735Z,28.20
2019-03-22T23:17:24.448Z,28.10
2019-03-22T23:20:17.325Z,28.10
2019-03-22T23:23:10.558Z,28.10
2019-03-22T23:26:04.146Z,28.20
2019-03-22T23:29:00.941Z,28.10
2019-03-22T23:31:53.776Z,28.10
2019-03-22T23:34:47.150Z,28.10
2019-03-22T23:37:39.671Z,28.10
2019-03-22T23:40:32.399Z,28.10
2019-03-22T23:43:24.651Z,28.10
2019-03-22T23:46:17.285Z,28.10
2019-03-22T23:49:09.751Z,28.10
2019-03-22T23:52:03.241Z,28.10
2019-03-22T23:54:56.001Z,28.10
2019-03-22T23:57:48.614Z,28.10
